createdAt,value
2023-01-19T00:10:54.935Z,80.80
2023-01-19T00:25:45.186Z,80.93
2023-01-19T00:40:34.785Z,80.56
2023-01-19T00:55:24.951Z,80.84
2023-01-19T01:10:14.584Z,80.79
2023-01-19T01:25:05.122Z,80.10
2023-01-19T01:39:55.801Z,80.19
2023-01-19T01:54:46.026Z,79.79
2023-01-19T02:09:55.276Z,79.27
2023-01-19T02:24:50.657Z,78.60
2023-01-19T02:39:43.181Z,78.04
2023-01-19T02:54:36.044Z,77.49
2023-01-19T03:09:31.424Z,77.69
2023-01-19T03:24:24.802Z,77.59
2023-01-19T03:39:15.549Z,78.12
2023-01-19T03:54:06.291Z,78.18
2023-01-19T04:08:56.931Z,78.40
2023-01-19T04:23:47.092Z,78.75
2023-01-19T04:38:37.300Z,79.29
2023-01-19T04:53:27.066Z,79.64
2023-01-19T05:08:17.143Z,79.55
2023-01-19T05:23:06.996Z,79.34
2023-01-19T05:37:56.385Z,79.31
2023-01-19T05:52:46.392Z,78.81
2023-01-19T06:07:35.933Z,79.18
2023-01-19T06:22:26.419Z,79.34
2023-01-19T06:37:25.288Z,78.92
2023-01-19T06:52:17.944Z,78.51
2023-01-19T07:07:10.870Z,78.54
2023-01-19T07:22:00.679Z,78.44
2023-01-19T07:36:50.862Z,78.57
2023-01-19T07:51:40.893Z,77.66
2023-01-19T08:06:30.824Z,76.26
2023-01-19T08:21:21.234Z,75.68
2023-01-19T08:36:10.403Z,75.24
2023-01-19T09:06:06.541Z,74.43
2023-01-19T09:20:58.391Z,74.38
2023-01-19T09:35:48.486Z,74.22
2023-01-19T09:50:38.493Z,73.16
2023-01-19T10:05:31.054Z,72.83
2023-01-19T10:20:23.863Z,73.87
2023-01-19T10:35:16.620Z,77.93
2023-01-19T10:50:30.750Z,78.64
2023-01-19T11:05:27.417Z,76.69
2023-01-19T11:20:19.647Z,75.53
2023-01-19T11:35:30.460Z,75.42
2023-01-19T11:50:29.070Z,75.15
2023-01-19T12:05:22.644Z,74.78
2023-01-19T12:20:32.677Z,74.41
2023-01-19T12:35:53.292Z,74.82
2023-01-19T12:50:49.134Z,75.15
2023-01-19T13:05:40.993Z,75.40
2023-01-19T13:20:32.568Z,74.86
2023-01-19T13:35:22.857Z,74.51
2023-01-19T13:50:27.751Z,73.48
2023-01-19T14:05:35.360Z,70.37
2023-01-19T14:20:28.503Z,68.10
2023-01-19T14:35:23.937Z,66.54
2023-01-19T14:50:17.432Z,66.23
2023-01-19T15:05:08.395Z,69.17
2023-01-19T15:19:57.267Z,69.93
2023-01-19T15:34:47.576Z,71.51
2023-01-19T15:49:38.348Z,72.68
2023-01-19T16:04:28.641Z,73.45
2023-01-19T16:19:17.540Z,74.47
2023-01-19T16:34:07.021Z,75.62
2023-01-19T16:49:02.664Z,76.73
2023-01-19T17:03:56.547Z,77.50
2023-01-19T17:18:45.620Z,78.30
2023-01-19T17:33:35.443Z,78.73
2023-01-19T17:48:25.788Z,79.01
2023-01-19T18:03:15.970Z,79.24
2023-01-19T18:18:05.194Z,79.36
2023-01-19T18:32:56.023Z,79.48
2023-01-19T18:47:47.840Z,79.63
2023-01-19T19:02:40.506Z,79.54
2023-01-19T19:17:31.036Z,79.63
2023-01-19T19:32:20.676Z,79.47
2023-01-19T19:47:10.681Z,79.94
2023-01-19T20:02:00.124Z,80.49
2023-01-19T20:16:49.852Z,80.42
2023-01-19T20:31:51.788Z,79.64
2023-01-19T20:46:46.088Z,79.39
2023-01-19T21:01:35.828Z,79.46
2023-01-19T21:16:26.371Z,79.37
2023-01-19T21:31:17.135Z,79.15
2023-01-19T21:46:13.319Z,78.86
2023-01-19T22:01:06.996Z,79.40
2023-01-19T22:15:59.702Z,78.97
2023-01-19T22:30:53.305Z,78.35
2023-01-19T22:45:43.279Z,79.73
2023-01-19T23:00:33.273Z,80.72
2023-01-19T23:15:23.176Z,81.32
2023-01-19T23:30:12.857Z,82.53
2023-01-19T23:45:02.458Z,83.73
2023-01-19T23:59:52.460Z,83.41
